sensor_id;sensor_type;location;lat;lon;timestamp;temperature;humidity
8994;DHT22;4532;50.886;4.700;2023-09-12T00:00:50;22.90;61.20
8994;DHT22;4532;50.886;4.700;2023-09-12T00:03:22;22.90;61.30
8994;DHT22;4532;50.886;4.700;2023-09-12T00:05:53;22.90;61.40
8994;DHT22;4532;50.886;4.700;2023-09-12T00:08:23;22.90;61.40
8994;DHT22;4532;50.886;4.700;2023-09-12T00:11:00;22.90;61.50
8994;DHT22;4532;50.886;4.700;2023-09-12T00:13:30;22.90;61.60
8994;DHT22;4532;50.886;4.700;2023-09-12T00:15:58;22.90;61.30
8994;DHT22;4532;50.886;4.700;2023-09-12T00:18:28;22.80;61.30
8994;DHT22;4532;50.886;4.700;2023-09-12T00:20:55;22.80;61.40
8994;DHT22;4532;50.886;4.700;2023-09-12T00:23:30;22.80;61.50
8994;DHT22;4532;50.886;4.700;2023-09-12T00:25:58;22.80;61.50
8994;DHT22;4532;50.886;4.700;2023-09-12T00:28:25;22.70;61.40
8994;DHT22;4532;50.886;4.700;2023-09-12T00:30:52;22.70;61.60
8994;DHT22;4532;50.886;4.700;2023-09-12T00:33:22;22.70;61.70
8994;DHT22;4532;50.886;4.700;2023-09-12T00:35:54;22.70;61.70
8994;DHT22;4532;50.886;4.700;2023-09-12T00:38:24;22.70;61.80
8994;DHT22;4532;50.886;4.700;2023-09-12T00:40:53;22.70;61.90
8994;DHT22;4532;50.886;4.700;2023-09-12T00:43:22;22.70;61.90
8994;DHT22;4532;50.886;4.700;2023-09-12T00:45:50;22.70;61.90
8994;DHT22;4532;50.886;4.700;2023-09-12T00:48:18;22.70;61.90
8994;DHT22;4532;50.886;4.700;2023-09-12T00:50:51;22.60;61.90
8994;DHT22;4532;50.886;4.700;2023-09-12T00:53:20;22.60;62.00
8994;DHT22;4532;50.886;4.700;2023-09-12T00:55:56;22.60;62.10
8994;DHT22;4532;50.886;4.700;2023-09-12T00:58:25;22.60;62.20
8994;DHT22;4532;50.886;4.700;2023-09-12T01:00:57;22.60;62.10
8994;DHT22;4532;50.886;4.700;2023-09-12T01:03:27;22.60;62.20
8994;DHT22;4532;50.886;4.700;2023-09-12T01:05:56;22.50;62.20
8994;DHT22;4532;50.886;4.700;2023-09-12T01:08:23;22.50;62.10
8994;DHT22;4532;50.886;4.700;2023-09-12T01:10:56;22.50;62.20
8994;DHT22;4532;50.886;4.700;2023-09-12T01:13:23;22.50;62.30
8994;DHT22;4532;50.886;4.700;2023-09-12T01:15:50;22.50;62.40
8994;DHT22;4532;50.886;4.700;2023-09-12T01:18:18;22.50;62.40
8994;DHT22;4532;50.886;4.700;2023-09-12T01:27:21;22.40;62.70
8994;DHT22;4532;50.886;4.700;2023-09-12T01:29:52;22.40;62.80
8994;DHT22;4532;50.886;4.700;2023-09-12T01:32:23;22.40;62.70
8994;DHT22;4532;50.886;4.700;2023-09-12T01:34:55;22.40;62.70
8994;DHT22;4532;50.886;4.700;2023-09-12T01:37:24;22.40;62.70
8994;DHT22;4532;50.886;4.700;2023-09-12T01:39:53;22.40;62.80
8994;DHT22;4532;50.886;4.700;2023-09-12T01:42:21;22.40;62.80
8994;DHT22;4532;50.886;4.700;2023-09-12T01:44:54;22.30;62.70
8994;DHT22;4532;50.886;4.700;2023-09-12T01:47:23;22.30;62.80
8994;DHT22;4532;50.886;4.700;2023-09-12T01:49:56;22.30;62.80
8994;DHT22;4532;50.886;4.700;2023-09-12T01:52:27;22.30;62.90
8994;DHT22;4532;50.886;4.700;2023-09-12T01:55:01;22.30;62.90
8994;DHT22;4532;50.886;4.700;2023-09-12T01:57:29;22.20;62.90
8994;DHT22;4532;50.886;4.700;2023-09-12T01:59:59;22.20;62.90
8994;DHT22;4532;50.886;4.700;2023-09-12T02:02:31;22.20;63.00
8994;DHT22;4532;50.886;4.700;2023-09-12T02:07:37;22.20;63.20
8994;DHT22;4532;50.886;4.700;2023-09-12T02:10:05;22.20;63.10
8994;DHT22;4532;50.886;4.700;2023-09-12T02:12:35;22.20;63.10
8994;DHT22;4532;50.886;4.700;2023-09-12T02:15:03;22.20;63.20
8994;DHT22;4532;50.886;4.700;2023-09-12T02:17:32;22.20;63.20
8994;DHT22;4532;50.886;4.700;2023-09-12T02:20:00;22.10;63.20
8994;DHT22;4532;50.886;4.700;2023-09-12T02:22:27;22.10;63.40
8994;DHT22;4532;50.886;4.700;2023-09-12T02:24:56;22.10;63.30
8994;DHT22;4532;50.886;4.700;2023-09-12T02:27:26;22.10;63.40
8994;DHT22;4532;50.886;4.700;2023-09-12T02:29:57;22.10;63.30
8994;DHT22;4532;50.886;4.700;2023-09-12T02:32:24;22.10;63.30
8994;DHT22;4532;50.886;4.700;2023-09-12T02:34:52;22.10;63.40
8994;DHT22;4532;50.886;4.700;2023-09-12T02:37:20;22.10;63.50
8994;DHT22;4532;50.886;4.700;2023-09-12T02:39:47;22.10;63.50
8994;DHT22;4532;50.886;4.700;2023-09-12T02:42:16;22.10;63.20
8994;DHT22;4532;50.886;4.700;2023-09-12T02:44:46;22.10;63.40
8994;DHT22;4532;50.886;4.700;2023-09-12T02:47:15;22.10;63.60
8994;DHT22;4532;50.886;4.700;2023-09-12T02:49:45;22.10;63.60
8994;DHT22;4532;50.886;4.700;2023-09-12T02:52:12;22.10;64.20
8994;DHT22;4532;50.886;4.700;2023-09-12T02:54:39;22.10;63.70
8994;DHT22;4532;50.886;4.700;2023-09-12T02:57:09;22.10;63.80
8994;DHT22;4532;50.886;4.700;2023-09-12T02:59:36;22.10;63.90
8994;DHT22;4532;50.886;4.700;2023-09-12T03:02:06;22.10;63.90
8994;DHT22;4532;50.886;4.700;2023-09-12T03:04:35;22.10;64.10
8994;DHT22;4532;50.886;4.700;2023-09-12T03:07:02;22.10;64.00
8994;DHT22;4532;50.886;4.700;2023-09-12T03:09:29;22.10;64.00
8994;DHT22;4532;50.886;4.700;2023-09-12T03:12:01;22.10;64.00
8994;DHT22;4532;50.886;4.700;2023-09-12T03:14:30;22.10;64.00
8994;DHT22;4532;50.886;4.700;2023-09-12T03:16:57;22.10;64.00
8994;DHT22;4532;50.886;4.700;2023-09-12T03:19:25;22.10;64.30
8994;DHT22;4532;50.886;4.700;2023-09-12T03:21:52;22.10;64.00
8994;DHT22;4532;50.886;4.700;2023-09-12T03:24:24;22.10;64.00
8994;DHT22;4532;50.886;4.700;2023-09-12T03:26:56;22.10;64.10
8994;DHT22;4532;50.886;4.700;2023-09-12T03:29:25;22.10;64.10
8994;DHT22;4532;50.886;4.700;2023-09-12T03:31:52;22.10;64.20
8994;DHT22;4532;50.886;4.700;2023-09-12T03:34:22;22.10;64.20
8994;DHT22;4532;50.886;4.700;2023-09-12T03:36:51;22.10;64.20
8994;DHT22;4532;50.886;4.700;2023-09-12T03:39:23;22.10;64.30
8994;DHT22;4532;50.886;4.700;2023-09-12T03:41:53;22.10;64.30
8994;DHT22;4532;50.886;4.700;2023-09-12T03:44:22;22.10;64.30
8994;DHT22;4532;50.886;4.700;2023-09-12T03:46:49;22.10;64.30
8994;DHT22;4532;50.886;4.700;2023-09-12T03:49:16;22.00;64.30
8994;DHT22;4532;50.886;4.700;2023-09-12T03:51:46;22.00;64.40
8994;DHT22;4532;50.886;4.700;2023-09-12T03:54:15;22.10;64.50
8994;DHT22;4532;50.886;4.700;2023-09-12T03:56:42;22.10;64.50
8994;DHT22;4532;50.886;4.700;2023-09-12T03:59:17;22.00;64.40
8994;DHT22;4532;50.886;4.700;2023-09-12T04:01:44;22.00;64.60
8994;DHT22;4532;50.886;4.700;2023-09-12T04:04:12;22.00;64.50
8994;DHT22;4532;50.886;4.700;2023-09-12T04:06:44;22.00;64.40
8994;DHT22;4532;50.886;4.700;2023-09-12T04:09:14;22.10;64.50
8994;DHT22;4532;50.886;4.700;2023-09-12T04:11:41;22.00;64.50
8994;DHT22;4532;50.886;4.700;2023-09-12T04:14:14;22.00;64.60
8994;DHT22;4532;50.886;4.700;2023-09-12T04:16:41;22.00;64.60
8994;DHT22;4532;50.886;4.700;2023-09-12T04:19:11;22.10;64.70
8994;DHT22;4532;50.886;4.700;2023-09-12T04:21:41;22.10;64.80
8994;DHT22;4532;50.886;4.700;2023-09-12T04:24:10;22.10;64.90
8994;DHT22;4532;50.886;4.700;2023-09-12T04:26:38;22.10;64.90
8994;DHT22;4532;50.886;4.700;2023-09-12T04:29:09;22.10;64.90
8994;DHT22;4532;50.886;4.700;2023-09-12T04:31:37;22.10;65.00
8994;DHT22;4532;50.886;4.700;2023-09-12T04:34:05;22.00;64.90
8994;DHT22;4532;50.886;4.700;2023-09-12T04:36:34;22.10;65.10
8994;DHT22;4532;50.886;4.700;2023-09-12T04:39:04;22.10;65.10
8994;DHT22;4532;50.886;4.700;2023-09-12T04:41:34;22.10;65.20
8994;DHT22;4532;50.886;4.700;2023-09-12T04:44:04;22.10;65.30
8994;DHT22;4532;50.886;4.700;2023-09-12T04:46:31;22.10;65.30
8994;DHT22;4532;50.886;4.700;2023-09-12T04:49:01;22.10;65.30
8994;DHT22;4532;50.886;4.700;2023-09-12T04:51:30;22.10;65.30
8994;DHT22;4532;50.886;4.700;2023-09-12T04:54:02;22.10;65.30
8994;DHT22;4532;50.886;4.700;2023-09-12T04:56:29;22.10;65.60
8994;DHT22;4532;50.886;4.700;2023-09-12T04:59:01;22.10;65.30
8994;DHT22;4532;50.886;4.700;2023-09-12T05:01:28;22.10;65.50
8994;DHT22;4532;50.886;4.700;2023-09-12T05:04:00;22.10;65.50
8994;DHT22;4532;50.886;4.700;2023-09-12T05:06:28;22.10;65.50
8994;DHT22;4532;50.886;4.700;2023-09-12T05:09:00;22.10;65.60
8994;DHT22;4532;50.886;4.700;2023-09-12T05:11:29;22.10;65.60
8994;DHT22;4532;50.886;4.700;2023-09-12T05:13:57;22.10;65.60
8994;DHT22;4532;50.886;4.700;2023-09-12T05:16:26;22.10;65.60
8994;DHT22;4532;50.886;4.700;2023-09-12T05:18:54;22.10;65.70
8994;DHT22;4532;50.886;4.700;2023-09-12T05:21:21;22.10;65.70
8994;DHT22;4532;50.886;4.700;2023-09-12T05:23:49;22.10;65.60
8994;DHT22;4532;50.886;4.700;2023-09-12T05:26:16;22.10;65.60
8994;DHT22;4532;50.886;4.700;2023-09-12T05:28:43;22.10;65.60
8994;DHT22;4532;50.886;4.700;2023-09-12T05:31:13;22.10;65.70
8994;DHT22;4532;50.886;4.700;2023-09-12T05:33:40;22.10;65.70
8994;DHT22;4532;50.886;4.700;2023-09-12T05:36:08;22.10;65.70
8994;DHT22;4532;50.886;4.700;2023-09-12T05:38:35;22.10;65.80
8994;DHT22;4532;50.886;4.700;2023-09-12T05:41:04;22.10;65.80
8994;DHT22;4532;50.886;4.700;2023-09-12T05:43:32;22.10;65.80
8994;DHT22;4532;50.886;4.700;2023-09-12T05:45:59;22.10;65.90
8994;DHT22;4532;50.886;4.700;2023-09-12T05:48:26;22.10;65.80
8994;DHT22;4532;50.886;4.700;2023-09-12T05:50:53;22.10;65.90
8994;DHT22;4532;50.886;4.700;2023-09-12T05:53:20;22.10;65.90
8994;DHT22;4532;50.886;4.700;2023-09-12T05:55:48;22.10;65.90
8994;DHT22;4532;50.886;4.700;2023-09-12T05:58:15;22.10;65.90
8994;DHT22;4532;50.886;4.700;2023-09-12T06:00:42;22.10;66.00
8994;DHT22;4532;50.886;4.700;2023-09-12T06:03:15;22.10;66.00
8994;DHT22;4532;50.886;4.700;2023-09-12T06:05:43;22.10;66.10
8994;DHT22;4532;50.886;4.700;2023-09-12T06:08:11;22.10;66.10
8994;DHT22;4532;50.886;4.700;2023-09-12T06:10:40;22.10;66.10
8994;DHT22;4532;50.886;4.700;2023-09-12T06:13:10;22.10;66.10
8994;DHT22;4532;50.886;4.700;2023-09-12T06:15:39;22.00;66.00
8994;DHT22;4532;50.886;4.700;2023-09-12T06:18:11;22.00;66.10
8994;DHT22;4532;50.886;4.700;2023-09-12T06:20:43;22.00;66.10
8994;DHT22;4532;50.886;4.700;2023-09-12T06:23:10;22.00;66.20
8994;DHT22;4532;50.886;4.700;2023-09-12T06:25:37;22.00;66.20
8994;DHT22;4532;50.886;4.700;2023-09-12T06:28:09;22.00;66.20
8994;DHT22;4532;50.886;4.700;2023-09-12T06:30:39;22.00;66.30
8994;DHT22;4532;50.886;4.700;2023-09-12T06:33:06;22.10;66.30
8994;DHT22;4532;50.886;4.700;2023-09-12T06:35:38;22.10;66.20
8994;DHT22;4532;50.886;4.700;2023-09-12T06:38:08;22.10;66.40
8994;DHT22;4532;50.886;4.700;2023-09-12T06:40:38;22.10;66.50
8994;DHT22;4532;50.886;4.700;2023-09-12T06:43:05;22.10;66.50
8994;DHT22;4532;50.886;4.700;2023-09-12T06:45:34;22.10;66.50
8994;DHT22;4532;50.886;4.700;2023-09-12T06:48:04;22.10;66.50
8994;DHT22;4532;50.886;4.700;2023-09-12T06:50:32;22.10;66.60
8994;DHT22;4532;50.886;4.700;2023-09-12T06:53:01;22.20;66.60
8994;DHT22;4532;50.886;4.700;2023-09-12T06:55:28;22.20;66.60
8994;DHT22;4532;50.886;4.700;2023-09-12T06:57:55;22.20;66.60
8994;DHT22;4532;50.886;4.700;2023-09-12T07:00:22;22.20;66.60
8994;DHT22;4532;50.886;4.700;2023-09-12T07:02:53;22.20;66.60
8994;DHT22;4532;50.886;4.700;2023-09-12T07:05:23;22.20;66.60
8994;DHT22;4532;50.886;4.700;2023-09-12T07:07:53;22.30;66.80
8994;DHT22;4532;50.886;4.700;2023-09-12T07:10:20;22.30;66.70
8994;DHT22;4532;50.886;4.700;2023-09-12T07:12:54;22.30;66.80
8994;DHT22;4532;50.886;4.700;2023-09-12T07:15:26;22.30;66.80
8994;DHT22;4532;50.886;4.700;2023-09-12T07:17:55;22.40;66.90
8994;DHT22;4532;50.886;4.700;2023-09-12T07:20:23;22.40;66.90
8994;DHT22;4532;50.886;4.700;2023-09-12T07:22:53;22.40;66.90
8994;DHT22;4532;50.886;4.700;2023-09-12T07:25:25;22.50;67.00
8994;DHT22;4532;50.886;4.700;2023-09-12T07:27:57;22.50;67.00
8994;DHT22;4532;50.886;4.700;2023-09-12T07:30:27;22.60;67.10
8994;DHT22;4532;50.886;4.700;2023-09-12T07:32:56;22.60;67.10
8994;DHT22;4532;50.886;4.700;2023-09-12T07:35:23;22.60;67.20
8994;DHT22;4532;50.886;4.700;2023-09-12T07:37:51;22.60;67.10
8994;DHT22;4532;50.886;4.700;2023-09-12T07:40:22;22.70;67.30
8994;DHT22;4532;50.886;4.700;2023-09-12T07:42:50;22.70;67.30
8994;DHT22;4532;50.886;4.700;2023-09-12T07:45:17;22.80;67.50
8994;DHT22;4532;50.886;4.700;2023-09-12T07:47:47;22.80;67.40
8994;DHT22;4532;50.886;4.700;2023-09-12T07:50:17;22.90;67.40
8994;DHT22;4532;50.886;4.700;2023-09-12T07:52:49;22.90;67.30
8994;DHT22;4532;50.886;4.700;2023-09-12T07:55:16;23.00;67.50
8994;DHT22;4532;50.886;4.700;2023-09-12T07:57:43;23.00;67.40
8994;DHT22;4532;50.886;4.700;2023-09-12T08:00:10;23.10;67.30
8994;DHT22;4532;50.886;4.700;2023-09-12T08:02:38;23.10;67.30
8994;DHT22;4532;50.886;4.700;2023-09-12T08:05:08;23.20;67.40
8994;DHT22;4532;50.886;4.700;2023-09-12T08:07:38;23.20;67.50
8994;DHT22;4532;50.886;4.700;2023-09-12T08:10:05;23.30;67.50
8994;DHT22;4532;50.886;4.700;2023-09-12T08:12:36;23.30;67.50
8994;DHT22;4532;50.886;4.700;2023-09-12T08:15:06;23.40;67.70
8994;DHT22;4532;50.886;4.700;2023-09-12T08:17:35;23.40;67.40
8994;DHT22;4532;50.886;4.700;2023-09-12T08:20:08;23.50;67.40
8994;DHT22;4532;50.886;4.700;2023-09-12T08:22:38;23.50;67.30
8994;DHT22;4532;50.886;4.700;2023-09-12T08:25:08;23.60;67.30
8994;DHT22;4532;50.886;4.700;2023-09-12T08:27:39;23.60;67.30
8994;DHT22;4532;50.886;4.700;2023-09-12T08:30:07;23.60;67.30
8994;DHT22;4532;50.886;4.700;2023-09-12T08:32:34;23.70;67.30
8994;DHT22;4532;50.886;4.700;2023-09-12T08:35:06;23.70;67.20
8994;DHT22;4532;50.886;4.700;2023-09-12T08:37:39;23.70;67.20
8994;DHT22;4532;50.886;4.700;2023-09-12T08:40:11;23.80;67.30
8994;DHT22;4532;50.886;4.700;2023-09-12T08:42:40;23.80;67.20
8994;DHT22;4532;50.886;4.700;2023-09-12T08:47:44;23.80;67.10
8994;DHT22;4532;50.886;4.700;2023-09-12T08:50:15;23.80;67.20
8994;DHT22;4532;50.886;4.700;2023-09-12T08:52:47;23.80;67.10
8994;DHT22;4532;50.886;4.700;2023-09-12T08:55:34;23.90;67.20
8994;DHT22;4532;50.886;4.700;2023-09-12T08:58:05;23.90;67.20
8994;DHT22;4532;50.886;4.700;2023-09-12T09:00:34;23.90;67.10
8994;DHT22;4532;50.886;4.700;2023-09-12T09:03:05;24.00;67.30
8994;DHT22;4532;50.886;4.700;2023-09-12T09:05:34;24.00;67.30
8994;DHT22;4532;50.886;4.700;2023-09-12T09:08:02;24.00;67.30
8994;DHT22;4532;50.886;4.700;2023-09-12T09:10:30;24.00;67.30
8994;DHT22;4532;50.886;4.700;2023-09-12T09:13:17;24.00;67.30
8994;DHT22;4532;50.886;4.700;2023-09-12T09:15:45;24.10;67.30
8994;DHT22;4532;50.886;4.700;2023-09-12T09:18:15;24.10;67.30
8994;DHT22;4532;50.886;4.700;2023-09-12T09:20:45;24.10;67.10
8994;DHT22;4532;50.886;4.700;2023-09-12T09:23:18;24.10;67.00
8994;DHT22;4532;50.886;4.700;2023-09-12T09:25:52;24.20;67.10
8994;DHT22;4532;50.886;4.700;2023-09-12T09:28:23;24.20;67.20
8994;DHT22;4532;50.886;4.700;2023-09-12T09:30:56;24.20;67.10
8994;DHT22;4532;50.886;4.700;2023-09-12T09:33:27;24.20;67.10
8994;DHT22;4532;50.886;4.700;2023-09-12T09:36:05;24.20;67.20
8994;DHT22;4532;50.886;4.700;2023-09-12T09:38:34;24.20;67.30
8994;DHT22;4532;50.886;4.700;2023-09-12T09:41:06;24.30;67.30
8994;DHT22;4532;50.886;4.700;2023-09-12T09:43:38;24.30;67.30
8994;DHT22;4532;50.886;4.700;2023-09-12T09:46:06;24.40;67.40
8994;DHT22;4532;50.886;4.700;2023-09-12T09:48:36;24.40;67.30
8994;DHT22;4532;50.886;4.700;2023-09-12T09:51:05;24.50;67.30
8994;DHT22;4532;50.886;4.700;2023-09-12T09:53:39;24.50;67.20
8994;DHT22;4532;50.886;4.700;2023-09-12T09:56:08;24.60;67.30
8994;DHT22;4532;50.886;4.700;2023-09-12T09:58:53;24.60;67.20
8994;DHT22;4532;50.886;4.700;2023-09-12T10:01:27;24.60;67.30
8994;DHT22;4532;50.886;4.700;2023-09-12T10:04:01;24.70;67.30
8994;DHT22;4532;50.886;4.700;2023-09-12T10:06:29;24.80;67.30
8994;DHT22;4532;50.886;4.700;2023-09-12T10:09:00;24.80;67.10
8994;DHT22;4532;50.886;4.700;2023-09-12T10:11:32;24.80;67.00
8994;DHT22;4532;50.886;4.700;2023-09-12T10:14:04;24.90;67.00
8994;DHT22;4532;50.886;4.700;2023-09-12T10:16:35;24.90;66.90
8994;DHT22;4532;50.886;4.700;2023-09-12T10:19:20;24.90;66.90
8994;DHT22;4532;50.886;4.700;2023-09-12T10:24:49;25.00;67.00
8994;DHT22;4532;50.886;4.700;2023-09-12T10:27:19;25.10;67.10
8994;DHT22;4532;50.886;4.700;2023-09-12T10:29:47;25.10;66.90
8994;DHT22;4532;50.886;4.700;2023-09-12T10:32:17;25.20;67.70
8994;DHT22;4532;50.886;4.700;2023-09-12T10:34:46;25.20;66.70
8994;DHT22;4532;50.886;4.700;2023-09-12T10:37:16;25.20;66.70
8994;DHT22;4532;50.886;4.700;2023-09-12T10:39:46;25.30;66.90
8994;DHT22;4532;50.886;4.700;2023-09-12T10:42:17;25.30;66.80
8994;DHT22;4532;50.886;4.700;2023-09-12T10:44:46;25.40;67.00
8994;DHT22;4532;50.886;4.700;2023-09-12T10:47:14;25.40;66.80
8994;DHT22;4532;50.886;4.700;2023-09-12T10:49:44;25.50;66.70
8994;DHT22;4532;50.886;4.700;2023-09-12T10:52:24;25.50;66.60
8994;DHT22;4532;50.886;4.700;2023-09-12T10:54:52;25.50;66.60
8994;DHT22;4532;50.886;4.700;2023-09-12T10:57:24;25.60;66.60
8994;DHT22;4532;50.886;4.700;2023-09-12T11:02:38;25.60;66.30
8994;DHT22;4532;50.886;4.700;2023-09-12T11:05:34;25.70;66.50
8994;DHT22;4532;50.886;4.700;2023-09-12T11:08:01;25.70;66.40
8994;DHT22;4532;50.886;4.700;2023-09-12T11:10:30;25.70;66.40
8994;DHT22;4532;50.886;4.700;2023-09-12T11:13:01;25.80;66.60
8994;DHT22;4532;50.886;4.700;2023-09-12T11:15:28;25.80;66.50
8994;DHT22;4532;50.886;4.700;2023-09-12T11:18:04;25.80;66.40
8994;DHT22;4532;50.886;4.700;2023-09-12T11:23:29;25.90;66.50
8994;DHT22;4532;50.886;4.700;2023-09-12T11:26:07;26.00;66.40
8994;DHT22;4532;50.886;4.700;2023-09-12T11:28:36;26.00;66.40
8994;DHT22;4532;50.886;4.700;2023-09-12T11:31:06;26.10;66.50
8994;DHT22;4532;50.886;4.700;2023-09-12T11:33:37;26.10;66.40
8994;DHT22;4532;50.886;4.700;2023-09-12T11:36:13;26.10;66.30
8994;DHT22;4532;50.886;4.700;2023-09-12T11:38:40;26.20;66.20
8994;DHT22;4532;50.886;4.700;2023-09-12T11:41:13;26.20;66.20
8994;DHT22;4532;50.886;4.700;2023-09-12T11:43:42;26.30;66.20
8994;DHT22;4532;50.886;4.700;2023-09-12T11:46:10;26.30;66.10
8994;DHT22;4532;50.886;4.700;2023-09-12T11:48:40;26.30;65.90
8994;DHT22;4532;50.886;4.700;2023-09-12T11:51:10;26.30;65.40
8994;DHT22;4532;50.886;4.700;2023-09-12T11:53:39;26.30;65.30
8994;DHT22;4532;50.886;4.700;2023-09-12T11:56:07;26.20;65.20
8994;DHT22;4532;50.886;4.700;2023-09-12T11:58:35;26.20;65.30
8994;DHT22;4532;50.886;4.700;2023-09-12T12:01:02;26.20;65.00
8994;DHT22;4532;50.886;4.700;2023-09-12T12:03:32;26.10;65.00
8994;DHT22;4532;50.886;4.700;2023-09-12T12:06:02;26.10;65.40
8994;DHT22;4532;50.886;4.700;2023-09-12T12:08:34;26.20;65.70
8994;DHT22;4532;50.886;4.700;2023-09-12T12:11:04;26.20;65.60
8994;DHT22;4532;50.886;4.700;2023-09-12T12:13:33;26.20;65.60
8994;DHT22;4532;50.886;4.700;2023-09-12T12:16:14;26.30;65.60
8994;DHT22;4532;50.886;4.700;2023-09-12T12:18:44;26.30;65.30
8994;DHT22;4532;50.886;4.700;2023-09-12T12:21:12;26.30;65.10
8994;DHT22;4532;50.886;4.700;2023-09-12T12:23:41;26.30;65.10
8994;DHT22;4532;50.886;4.700;2023-09-12T12:26:11;26.30;65.10
8994;DHT22;4532;50.886;4.700;2023-09-12T12:28:40;26.30;65.20
8994;DHT22;4532;50.886;4.700;2023-09-12T12:31:08;26.30;65.10
8994;DHT22;4532;50.886;4.700;2023-09-12T12:33:40;26.30;64.90
8994;DHT22;4532;50.886;4.700;2023-09-12T12:36:29;26.30;65.00
8994;DHT22;4532;50.886;4.700;2023-09-12T12:38:59;26.30;64.90
8994;DHT22;4532;50.886;4.700;2023-09-12T12:41:29;26.20;64.60
8994;DHT22;4532;50.886;4.700;2023-09-12T12:44:13;26.20;64.70
8994;DHT22;4532;50.886;4.700;2023-09-12T12:49:17;26.20;64.90
8994;DHT22;4532;50.886;4.700;2023-09-12T12:51:45;26.20;65.00
8994;DHT22;4532;50.886;4.700;2023-09-12T12:54:13;26.20;64.90
8994;DHT22;4532;50.886;4.700;2023-09-12T12:56:43;26.30;64.80
8994;DHT22;4532;50.886;4.700;2023-09-12T12:59:14;26.30;64.90
8994;DHT22;4532;50.886;4.700;2023-09-12T13:01:44;26.30;65.00
8994;DHT22;4532;50.886;4.700;2023-09-12T13:04:11;26.30;64.80
8994;DHT22;4532;50.886;4.700;2023-09-12T13:06:39;26.30;64.80
8994;DHT22;4532;50.886;4.700;2023-09-12T13:09:10;26.30;64.90
8994;DHT22;4532;50.886;4.700;2023-09-12T13:11:38;26.40;65.00
8994;DHT22;4532;50.886;4.700;2023-09-12T13:14:12;26.40;64.80
8994;DHT22;4532;50.886;4.700;2023-09-12T13:16:39;26.40;65.00
8994;DHT22;4532;50.886;4.700;2023-09-12T13:19:11;26.40;64.80
8994;DHT22;4532;50.886;4.700;2023-09-12T13:21:45;26.50;64.80
8994;DHT22;4532;50.886;4.700;2023-09-12T13:24:19;26.40;64.70
8994;DHT22;4532;50.886;4.700;2023-09-12T13:26:46;26.50;64.60
8994;DHT22;4532;50.886;4.700;2023-09-12T13:29:16;26.50;64.60
8994;DHT22;4532;50.886;4.700;2023-09-12T13:31:46;26.50;64.60
8994;DHT22;4532;50.886;4.700;2023-09-12T13:34:15;26.50;64.60
8994;DHT22;4532;50.886;4.700;2023-09-12T13:36:45;26.50;64.60
8994;DHT22;4532;50.886;4.700;2023-09-12T13:39:26;26.50;64.60
8994;DHT22;4532;50.886;4.700;2023-09-12T13:41:54;26.50;64.60
8994;DHT22;4532;50.886;4.700;2023-09-12T13:44:24;26.50;64.50
8994;DHT22;4532;50.886;4.700;2023-09-12T13:46:52;26.40;64.20
8994;DHT22;4532;50.886;4.700;2023-09-12T13:49:20;26.40;64.00
8994;DHT22;4532;50.886;4.700;2023-09-12T13:51:50;26.40;65.00
8994;DHT22;4532;50.886;4.700;2023-09-12T13:54:17;26.40;64.30
8994;DHT22;4532;50.886;4.700;2023-09-12T13:56:44;26.40;64.10
8994;DHT22;4532;50.886;4.700;2023-09-12T13:59:16;26.40;63.80
8994;DHT22;4532;50.886;4.700;2023-09-12T14:01:49;26.40;64.00
8994;DHT22;4532;50.886;4.700;2023-09-12T14:04:16;26.30;64.20
8994;DHT22;4532;50.886;4.700;2023-09-12T14:06:47;26.30;64.30
8994;DHT22;4532;50.886;4.700;2023-09-12T14:09:15;26.30;64.40
8994;DHT22;4532;50.886;4.700;2023-09-12T14:11:51;26.30;64.30
8994;DHT22;4532;50.886;4.700;2023-09-12T14:14:23;26.30;65.20
8994;DHT22;4532;50.886;4.700;2023-09-12T14:16:50;26.30;64.30
8994;DHT22;4532;50.886;4.700;2023-09-12T14:19:20;26.30;64.20
8994;DHT22;4532;50.886;4.700;2023-09-12T14:21:49;26.30;64.20
8994;DHT22;4532;50.886;4.700;2023-09-12T14:24:20;26.30;64.30
8994;DHT22;4532;50.886;4.700;2023-09-12T14:26:55;26.30;64.30
8994;DHT22;4532;50.886;4.700;2023-09-12T14:29:28;26.30;64.20
8994;DHT22;4532;50.886;4.700;2023-09-12T14:31:57;26.20;64.00
8994;DHT22;4532;50.886;4.700;2023-09-12T14:34:32;26.20;64.00
8994;DHT22;4532;50.886;4.700;2023-09-12T14:37:00;26.20;64.00
8994;DHT22;4532;50.886;4.700;2023-09-12T14:39:27;26.10;63.90
8994;DHT22;4532;50.886;4.700;2023-09-12T14:41:56;26.10;63.80
8994;DHT22;4532;50.886;4.700;2023-09-12T14:44:24;26.10;63.80
8994;DHT22;4532;50.886;4.700;2023-09-12T14:46:54;26.00;63.60
8994;DHT22;4532;50.886;4.700;2023-09-12T14:49:23;26.00;63.60
8994;DHT22;4532;50.886;4.700;2023-09-12T14:51:51;26.00;63.90
8994;DHT22;4532;50.886;4.700;2023-09-12T14:54:18;25.90;63.70
8994;DHT22;4532;50.886;4.700;2023-09-12T14:56:46;25.90;63.70
8994;DHT22;4532;50.886;4.700;2023-09-12T14:59:15;25.90;63.70
8994;DHT22;4532;50.886;4.700;2023-09-12T15:01:46;25.90;63.60
8994;DHT22;4532;50.886;4.700;2023-09-12T15:04:17;25.80;63.60
8994;DHT22;4532;50.886;4.700;2023-09-12T15:06:47;25.80;63.60
8994;DHT22;4532;50.886;4.700;2023-09-12T15:09:15;25.80;63.70
8994;DHT22;4532;50.886;4.700;2023-09-12T15:11:42;25.80;63.70
8994;DHT22;4532;50.886;4.700;2023-09-12T15:14:11;25.80;63.70
8994;DHT22;4532;50.886;4.700;2023-09-12T15:16:41;25.80;63.70
8994;DHT22;4532;50.886;4.700;2023-09-12T15:19:10;25.80;63.70
8994;DHT22;4532;50.886;4.700;2023-09-12T15:21:40;25.70;63.70
8994;DHT22;4532;50.886;4.700;2023-09-12T15:24:10;25.70;63.60
8994;DHT22;4532;50.886;4.700;2023-09-12T15:26:40;25.70;63.70
8994;DHT22;4532;50.886;4.700;2023-09-12T15:29:10;25.70;63.60
8994;DHT22;4532;50.886;4.700;2023-09-12T15:31:37;25.70;63.60
8994;DHT22;4532;50.886;4.700;2023-09-12T15:34:04;25.70;63.70
8994;DHT22;4532;50.886;4.700;2023-09-12T15:36:39;25.60;63.60
8994;DHT22;4532;50.886;4.700;2023-09-12T15:39:10;25.60;63.60
8994;DHT22;4532;50.886;4.700;2023-09-12T15:41:37;25.60;63.60
8994;DHT22;4532;50.886;4.700;2023-09-12T15:44:07;25.60;63.60
8994;DHT22;4532;50.886;4.700;2023-09-12T15:46:41;25.60;63.50
8994;DHT22;4532;50.886;4.700;2023-09-12T15:49:17;25.50;63.40
8994;DHT22;4532;50.886;4.700;2023-09-12T15:51:44;25.50;63.40
8994;DHT22;4532;50.886;4.700;2023-09-12T15:54:11;25.50;63.40
8994;DHT22;4532;50.886;4.700;2023-09-12T15:56:39;25.50;63.50
8994;DHT22;4532;50.886;4.700;2023-09-12T15:59:08;25.40;63.40
8994;DHT22;4532;50.886;4.700;2023-09-12T16:01:38;25.40;63.40
8994;DHT22;4532;50.886;4.700;2023-09-12T16:04:05;25.40;63.40
8994;DHT22;4532;50.886;4.700;2023-09-12T16:06:33;25.40;63.40
8994;DHT22;4532;50.886;4.700;2023-09-12T16:09:02;25.30;63.30
8994;DHT22;4532;50.886;4.700;2023-09-12T16:11:35;25.30;63.30
8994;DHT22;4532;50.886;4.700;2023-09-12T16:14:02;25.30;63.30
8994;DHT22;4532;50.886;4.700;2023-09-12T16:16:29;25.20;63.10
8994;DHT22;4532;50.886;4.700;2023-09-12T16:18:59;25.20;63.20
8994;DHT22;4532;50.886;4.700;2023-09-12T16:21:26;25.20;63.30
8994;DHT22;4532;50.886;4.700;2023-09-12T16:23:58;25.20;63.30
8994;DHT22;4532;50.886;4.700;2023-09-12T16:26:27;25.10;63.20
8994;DHT22;4532;50.886;4.700;2023-09-12T16:28:57;25.10;63.40
8994;DHT22;4532;50.886;4.700;2023-09-12T16:31:26;25.10;63.40
8994;DHT22;4532;50.886;4.700;2023-09-12T16:33:54;25.10;63.40
8994;DHT22;4532;50.886;4.700;2023-09-12T16:36:22;25.10;63.40
8994;DHT22;4532;50.886;4.700;2023-09-12T16:38:51;25.00;63.30
8994;DHT22;4532;50.886;4.700;2023-09-12T16:41:21;25.00;63.30